地図

経路データ

SID SEASON NUMBER BASIN SUBBASIN NAME ISO_TIME NATURE LAT LON WMO_WIND WMO_PRES WMO_AGENCY TRACK_TYPE DIST2LAND LANDFALL IFLAG USA_AGENCY USA_ATCF_ID USA_LAT USA_LON USA_RECORD USA_STATUS USA_WIND USA_PRES USA_SSHS USA_R34_NE USA_R34_SE USA_R34_SW USA_R34_NW USA_R50_NE USA_R50_SE USA_R50_SW USA_R50_NW USA_R64_NE USA_R64_SE USA_R64_SW USA_R64_NW USA_POCI USA_ROCI USA_RMW USA_EYE TOKYO_LAT TOKYO_LON TOKYO_GRADE TOKYO_WIND TOKYO_PRES TOKYO_R50_DIR TOKYO_R50_LONG TOKYO_R50_SHORT TOKYO_R30_DIR TOKYO_R30_LONG TOKYO_R30_SHORT TOKYO_LAND CMA_LAT CMA_LON CMA_CAT CMA_WIND CMA_PRES HKO_LAT HKO_LON HKO_CAT HKO_WIND HKO_PRES NEWDELHI_LAT NEWDELHI_LON NEWDELHI_GRADE NEWDELHI_WIND NEWDELHI_PRES NEWDELHI_CI NEWDELHI_DP NEWDELHI_POCI REUNION_LAT REUNION_LON REUNION_TYPE REUNION_WIND REUNION_PRES REUNION_TNUM REUNION_CI REUNION_RMW REUNION_R34_NE REUNION_R34_SE REUNION_R34_SW REUNION_R34_NW REUNION_R50_NE REUNION_R50_SE REUNION_R50_SW REUNION_R50_NW REUNION_R64_NE REUNION_R64_SE REUNION_R64_SW REUNION_R64_NW BOM_LAT BOM_LON BOM_TYPE BOM_WIND BOM_PRES BOM_TNUM BOM_CI BOM_RMW BOM_R34_NE BOM_R34_SE BOM_R34_SW BOM_R34_NW BOM_R50_NE BOM_R50_SE BOM_R50_SW BOM_R50_NW BOM_R64_NE BOM_R64_SE BOM_R64_SW BOM_R64_NW BOM_ROCI BOM_POCI BOM_EYE BOM_POS_METHOD BOM_PRES_METHOD NADI_LAT NADI_LON NADI_CAT NADI_WIND NADI_PRES WELLINGTON_LAT WELLINGTON_LON WELLINGTON_WIND WELLINGTON_PRES DS824_LAT DS824_LON DS824_STAGE DS824_WIND DS824_PRES TD9636_LAT TD9636_LON TD9636_STAGE TD9636_WIND TD9636_PRES TD9635_LAT TD9635_LON TD9635_WIND TD9635_PRES TD9635_ROCI NEUMANN_LAT NEUMANN_LON NEUMANN_CLASS NEUMANN_WIND NEUMANN_PRES MLC_LAT MLC_LON MLC_CLASS MLC_WIND MLC_PRES USA_GUST BOM_GUST BOM_GUST_PER REUNION_GUST REUNION_GUST_PER USA_SEAHGT USA_SEARAD_NE USA_SEARAD_SE USA_SEARAD_SW USA_SEARAD_NW STORM_SPEED STORM_DIR
1963058S23041 1963 23 SI MM HILDA 1963-02-27 06:00:00 TS -22.8000 40.9800 reunion main 232 232 O____O___OO_O_ jtwc_sh SH341963 -22.8000 41.1000 -1 -22.8000 40.8000 3 9.90000 -22.8000 41.1000 TC 25 -22.8000 41.1000 7 -22.8000 40.8000 TC 35 4 0
1963058S23041 1963 23 SI MM HILDA 1963-02-27 09:00:00 TS -22.9984 41.0046 main 238 238 P____P___PP_P_ SH341963 -22.9975 41.1500 -1 -22.9875 40.7876 3 -22.9975 41.1500 TC 25 -23.0219 41.1482 7 -22.9875 40.7876 TC 37 4 172
1963058S23041 1963 23 SI MM HILDA 1963-02-27 12:00:00 TS -23.2070 41.0394 reunion main 246 241 O____O___OP_O_ jtwc_sh SH341963 -23.2000 41.2000 -1 -23.2000 40.8000 99 9.90000 -23.2000 41.2000 TC 25 -23.2350 41.1971 7 -23.2000 40.8000 TC 40 4 169
1963058S23041 1963 23 SI MM HILDA 1963-02-27 15:00:00 TS -23.4291 41.0895 main 244 244 P____P___PP_P_ SH341963 -23.4075 41.2500 -1 -23.4500 40.8499 99 -23.4075 41.2500 TC 30 -23.4306 41.2475 7 -23.4500 40.8499 TC 42 4 168
1963058S23041 1963 23 SI MM HILDA 1963-02-27 18:00:00 TS -23.6400 41.1400 reunion main 251 244 O____O___OO_O_ jtwc_sh SH341963 -23.6000 41.3000 -1 -23.7000 40.9000 99 9.90000 -23.6000 41.3000 TC 35 -23.6000 41.3000 2 -23.7000 40.9000 TC 45 4 170
1963058S23041 1963 23 SI MM HILDA 1963-02-27 21:00:00 TS -23.8113 41.1683 main 244 244 P____P___PP_P_ SH341963 -23.7500 41.3426 -1 -23.9075 40.9001 99 -23.7500 41.3426 TC 35 -23.7415 41.3560 2 -23.9075 40.9001 TC 45 3 171
1963058S23041 1963 23 SI MM HILDA 1963-02-28 00:00:00 TS -23.9765 41.2041 reunion main 246 237 O____O___OP_O_ jtwc_sh SH341963 -23.9000 41.4000 -1 -24.1000 40.9000 99 9.90000 -23.9000 41.4000 TC 35 -23.8824 41.4207 2 -24.1000 40.9000 TC 45 4 164
1963058S23041 1963 23 SI MM HILDA 1963-02-28 03:00:00 TS -24.1474 41.2710 main 237 235 P____P___PP_P_ SH341963 -24.0625 41.4851 -1 -24.2775 40.9425 99 -24.0625 41.4851 TC 35 -24.0571 41.5000 2 -24.2775 40.9425 TC 47 4 161
1963058S23041 1963 23 SI MM HILDA 1963-02-28 06:00:00 TS -24.3800 41.3600 reunion main 235 232 O____O___OO_O_ jtwc_sh SH341963 -24.3000 41.6000 -1 -24.5000 41.0000 3 9.90000 -24.3000 41.6000 TC 35 -24.3000 41.6000 2 -24.5000 41.0000 TC 50 6 163
1963058S23041 1963 23 SI MM HILDA 1963-02-28 09:00:00 TS -24.7261 41.4610 main 232 228 P____P___PP_P_ SH341963 -24.6625 41.7425 -1 -24.8200 41.0500 3 -24.6625 41.7425 TC 35 -24.6653 41.7201 2 -24.8200 41.0500 TC 50 8 166
1963058S23041 1963 23 SI MM HILDA 1963-02-28 12:00:00 TS -25.1395 41.5724 reunion main 228 228 O____O___OP_O_ jtwc_sh SH341963 -25.1000 41.9000 -1 -25.2000 41.1000 99 9.90000 -25.1000 41.9000 TC 35 -25.0975 41.8623 2 -25.2000 41.1000 TC 50 9 167
1963058S23041 1963 23 SI MM HILDA 1963-02-28 15:00:00 TS -25.5681 41.6699 main 239 239 P____P___PP_P_ SH341963 -25.5650 42.0500 -1 -25.5774 41.1130 99 -25.5650 42.0500 TC 35 -25.5559 42.0233 2 -25.5774 41.1130 TC 50 9 167
1963058S23041 1963 23 SI MM HILDA 1963-02-28 18:00:00 TS -26.0000 41.8000 reunion main 247 243 O____O___OO_O_ jtwc_sh SH341963 -26.0000 42.2000 -1 -26.0000 41.2000 99 9.90000 -26.0000 42.2000 TC 35 -26.0000 42.2000 2 -26.0000 41.2000 TC 50 8 160
1963058S23041 1963 23 SI MM HILDA 1963-02-28 21:00:00 TS -26.3620 41.9932 main 254 253 P____P___PP_P_ SH341963 -26.3074 42.3354 -1 -26.4627 41.4772 99 -26.3074 42.3354 TC 35 -26.2695 42.3409 2 -26.4627 41.4772 TC 47 8 153
1963058S23041 1963 23 SI MM HILDA 1963-03-01 00:00:00 TS -26.7468 42.2203 reunion main 261 261 O____O___OP_O_ jtwc_sh SH341963 -26.6000 42.5000 -1 -27.0000 41.8000 99 9.90000 -26.6000 42.5000 TC 35 -26.5342 42.5017 2 -27.0000 41.8000 TC 45 9 155
1963058S23041 1963 23 SI MM HILDA 1963-03-01 03:00:00 TS -27.1852 42.4162 main 291 291 P____P___PP_P_ SH341963 -26.9098 42.7061 -1 -27.6122 41.9787 99 -26.9098 42.7061 TC 35 -26.8818 42.7114 2 -27.6122 41.9787 TC 45 11 158
1963058S23041 1963 23 SI MM HILDA 1963-03-01 06:00:00 MX -27.7600 42.6800 reunion main 326 326 O____O___OO_O_ jtwc_sh SH341963 -27.4000 43.0000 -1 -28.3000 42.2000 5 9.90000 -27.4000 43.0000 TC 35 -27.4000 43.0000 2 -28.3000 42.2000 EX 45 15 157
1963058S23041 1963 23 SI MM HILDA 1963-03-01 09:00:00 MX -28.5489 43.0851 main 379 379 P____P___PP_P_ SH341963 -28.2025 43.4052 -1 -29.0576 42.6046 5 -28.2025 43.4052 TC 35 -28.2245 43.4061 2 -29.0576 42.6046 EX 42 19 155
1963058S23041 1963 23 SI MM HILDA 1963-03-01 12:00:00 TS -29.4432 43.5795 reunion main 452 452 O____O___OP_O_ jtwc_sh SH341963 -29.2000 43.9000 -1 -29.8000 43.1000 99 9.90000 -29.2000 43.9000 TC 35 -29.2162 43.8976 2 -29.8000 43.1000 TC 40 20 154
1963058S23041 1963 23 SI MM HILDA 1963-03-01 15:00:00 TS -30.3056 44.0823 main 535 535 P____P___PP_P_ SH341963 -30.2575 44.4422 -1 -30.3692 43.5431 99 -30.2575 44.4422 TC 35 -30.2746 44.4411 2 -30.3692 43.5431 TC 40 20 152
1963058S23041 1963 23 SI MM HILDA 1963-03-01 18:00:00 TS -31.1800 44.6400 reunion main 627 627 O____O___OO_O_ jtwc_sh SH341963 -31.3000 45.0000 -1 -31.0000 44.1000 99 9.90000 -31.3000 45.0000 TC 35 -31.3000 45.0000 2 -31.0000 44.1000 TC 40 21 150
1963058S23041 1963 23 SI MM HILDA 1963-03-01 21:00:00 TS -32.0952 45.2762 main 725 725 P____P___PP_P_ SH341963 -32.1946 45.5015 -1 -31.9358 44.9175 99 -32.1946 45.5015 TC 30 -32.2155 45.5427 2 -31.9358 44.9175 TC 40 21 148
1963058S23041 1963 23 SI MM HILDA 1963-03-02 00:00:00 MX -32.9665 45.9336 reunion main 826 826 O____O___OP_O_ jtwc_sh SH341963 -33.0000 46.0000 -1 -32.9000 45.8000 99 9.90000 -33.0000 46.0000 TC 25 -33.0324 46.0682 2 -32.9000 45.8000 EX 40 20 147
1963058S23041 1963 23 SI MM HILDA 1963-03-02 03:00:00 MX -33.7278 46.5502 main 910 910 P____P___PP_P_ SH341963 -33.7607 46.5352 -1 -33.6673 46.5480 99 -33.7607 46.5352 TC 25 -33.7832 46.5844 2 -33.6673 46.5480 EX 40 18 145
1963058S23041 1963 23 SI MM HILDA 1963-03-02 06:00:00 MX -34.4200 47.1400 reunion main 993 O____O___OO_O_ jtwc_sh SH341963 -34.5000 47.1000 -1 -34.3000 47.2000 5 9.90000 -34.5000 47.1000 TC 25 -34.5000 47.1000 7 -34.3000 47.2000 EX 40 17 145

IBTrACS Databaseについて

本データベースは、米国NOAAが公開する1842年以降の世界の熱帯低気圧のベストトラックデータアーカイブInternational Best Track Archive for Climate Stewardship (IBTrACS)を、ウェブで閲覧しやすい形式に変換したものです。

最終更新日:2021-12-06